Jackson, NH

4:35 AM EST on December 09, 2016 (GMT -0500)
Higgins Location | | Change Station

Elev 1155 ft 44.12 °N, 71.20 °W | Updated 4 minutes ago

Mostly Cloudy
Mostly Cloudy
24.7 °F
Feels Like 14 °F
N
11.0
Wind Variable Wind from West
Gusts 11.0 mph

Today
High -- | Low -- °F
--% Chance of Precip.
Yesterday
High -- | Low -- °F
Precip. -- in
Pressure 29.74 in
Visibility 10.0 miles
Clouds Mostly Cloudy 4500 ft
Overcast 5500 ft
Windchill 14 °F
Dew Point 14 °F
Humidity 62%
Rainfall 0.00 in
Snow Depth Not available.
7:08 AM 4:06 PM
Waxing Gibbous, 72% visible
METAR KIZG 090854Z AUTO 26005KT 10SM BKN045 OVC055 M01/M08 A2973 RMK AO2 SLP071 T10111078 53006
Pressure 29.74 in
Visibility 10.0 miles
Clouds Mostly Cloudy 4500 ft
Overcast 5500 ft
Windchill 14 °F
Dew Point 14 °F
Humidity 62%
Rainfall 0.00 in
Snow Depth Not available.
7:08 AM 4:06 PM
Waxing Gibbous, 72% visible
METAR KIZG 090854Z AUTO 26005KT 10SM BKN045 OVC055 M01/M08 A2973 RMK AO2 SLP071 T10111078 53006

10-Day Weather Forecast

Almanac

Astronomy

Dec. 09, 2016 Rise Set
Actual Time
Civil Twilight
Nautical Twilight
Astronomical Twilight
Moon
Length of Visible Light
Length of Day
Tomorrow will be .
, % of the Moon is Illuminated

Today's Extremes

State Highs State Lows

Community

WunderPhotos

Upload Photos

1,956,371 photos uploaded!

WunderBlog® & News

Nearby

Air Quality

  Air Quality AQ Index Pollutant
Not available.

Snow Depth

Station Depth Elevation

Earthquake Activity

City Distance Mag. Time & Date
Minimum magnitude displayed is 2.5.

Coastal Water Temperatures

Place Temperature

Stations

Nearby Weather Stations

Station Location Temp. Windchill Dew Point Humidity Wind Precip. Elev Updated Type
                   

Watches & Warnings

There are currently no watches in effect.